LNK89W FAPE-FACT
Flight info
| Callsign | LNK89W |
|---|---|
| Flight time | N/A |
| Altitude | 38000 |
| Route | OKRAV UQ49 ESRUK UQ51 GETEN GETEN1A |
| Aircraft | E190/M-SDE3GILORVW/S |
Departure
| Time | 2026-04-17 20:19 |
|---|---|
| Airport | Chief Dawid Stuurman International Airport (FAPE) |
Arrival
| Time | N/A |
|---|---|
| Airport | Cape Town International Airport (FACT) |
| Time | Latitude | Longitude | Altitude | Speed | Heading |
|---|---|---|---|---|---|
| 2026-04-17 19:53 | -33.98489 | 25.61143 | 205 ft | 0 kts | 0° |
| 2026-04-17 20:09 | -33.98490 | 25.61143 | 203 ft | 1 kts | 359° |
| 2026-04-17 20:09 | -33.98488 | 25.61135 | 203 ft | 3 kts | 310° |
| 2026-04-17 20:10 | -33.98482 | 25.61118 | 207 ft | 3 kts | 293° |
| 2026-04-17 20:10 | -33.98491 | 25.61139 | 203 ft | 3 kts | 312° |
| 2026-04-17 20:10 | -33.98504 | 25.61152 | 205 ft | 2 kts | 335° |
| 2026-04-17 20:10 | -33.98522 | 25.61160 | 207 ft | 3 kts | 4° |
| 2026-04-17 20:11 | -33.98540 | 25.61154 | 209 ft | 3 kts | 38° |
| 2026-04-17 20:11 | -33.98554 | 25.61137 | 211 ft | 3 kts | 58° |
| 2026-04-17 20:11 | -33.98562 | 25.61121 | 207 ft | 2 kts | 60° |
| 2026-04-17 20:11 | -33.98564 | 25.61117 | 207 ft | 1 kts | 60° |
| 2026-04-17 20:14 | -33.98561 | 25.61121 | 209 ft | 2 kts | 57° |
| 2026-04-17 20:14 | -33.98555 | 25.61140 | 212 ft | 2 kts | 79° |
| 2026-04-17 20:15 | -33.98540 | 25.61171 | 216 ft | 6 kts | 54° |
| 2026-04-17 20:15 | -33.98516 | 25.61213 | 208 ft | 6 kts | 54° |
| 2026-04-17 20:15 | -33.98493 | 25.61257 | 208 ft | 6 kts | 58° |
| 2026-04-17 20:15 | -33.98468 | 25.61301 | 214 ft | 6 kts | 54° |
| 2026-04-17 20:16 | -33.98435 | 25.61341 | 203 ft | 6 kts | 42° |
| 2026-04-17 20:16 | -33.98423 | 25.61369 | 206 ft | 4 kts | 66° |
| 2026-04-17 20:16 | -33.98411 | 25.61402 | 206 ft | 5 kts | 59° |
| 2026-04-17 20:16 | -33.98389 | 25.61443 | 200 ft | 6 kts | 59° |
| 2026-04-17 20:17 | -33.98382 | 25.61477 | 200 ft | 4 kts | 81° |
| 2026-04-17 20:17 | -33.98374 | 25.61516 | 207 ft | 8 kts | 65° |
| 2026-04-17 20:17 | -33.98343 | 25.61589 | 204 ft | 12 kts | 55° |
| 2026-04-17 20:17 | -33.98305 | 25.61684 | 200 ft | 13 kts | 103° |
| 2026-04-17 20:18 | -33.98268 | 25.61785 | 199 ft | 15 kts | 36° |
| 2026-04-17 20:18 | -33.98234 | 25.61871 | 199 ft | 10 kts | 107° |
| 2026-04-17 20:18 | -33.98281 | 25.61921 | 204 ft | 10 kts | 143° |
| 2026-04-17 20:18 | -33.98349 | 25.61958 | 203 ft | 11 kts | 183° |
| 2026-04-17 20:19 | -33.98398 | 25.61893 | 201 ft | 12 kts | 236° |
| 2026-04-17 20:19 | -33.98568 | 25.61565 | 207 ft | 81 kts | 236° |
| 2026-04-17 20:19 | -33.98976 | 25.60750 | 220 ft | 145 kts | 240° |
| 2026-04-17 20:19 | -33.99571 | 25.59667 | 863 ft | 163 kts | 238° |
| 2026-04-17 20:20 | -34.00308 | 25.58473 | 1390 ft | 197 kts | 236° |
| 2026-04-17 20:20 | -34.01190 | 25.57050 | 2011 ft | 211 kts | 236° |
| 2026-04-17 20:20 | -34.02025 | 25.55717 | 3464 ft | 192 kts | 236° |
| 2026-04-17 20:20 | -34.02812 | 25.54457 | 4559 ft | 185 kts | 237° |
| 2026-04-17 20:21 | -34.03597 | 25.53221 | 5319 ft | 193 kts | 240° |
| 2026-04-17 20:21 | -34.04166 | 25.51643 | 5195 ft | 232 kts | 265° |
| 2026-04-17 20:21 | -34.04081 | 25.49605 | 5764 ft | 240 kts | 277° |
| 2026-04-17 20:21 | -34.03962 | 25.47626 | 6839 ft | 239 kts | 278° |
| 2026-04-17 20:22 | -34.03845 | 25.45559 | 7404 ft | 251 kts | 278° |
| 2026-04-17 20:22 | -34.03733 | 25.43461 | 8171 ft | 255 kts | 279° |
| 2026-04-17 20:22 | -34.03622 | 25.41302 | 8958 ft | 259 kts | 279° |
| 2026-04-17 20:22 | -34.03512 | 25.39135 | 9799 ft | 260 kts | 281° |
| 2026-04-17 20:23 | -34.03398 | 25.36979 | 10561 ft | 260 kts | 281° |
| 2026-04-17 20:23 | -34.03282 | 25.34800 | 11360 ft | 262 kts | 281° |
| 2026-04-17 20:23 | -34.03167 | 25.32603 | 12162 ft | 263 kts | 281° |
| 2026-04-17 20:23 | -34.03051 | 25.30393 | 12974 ft | 265 kts | 281° |
| 2026-04-17 20:24 | -34.02935 | 25.28171 | 13768 ft | 266 kts | 281° |
| 2026-04-17 20:24 | -34.02819 | 25.25950 | 14499 ft | 267 kts | 281° |
| 2026-04-17 20:24 | -34.02700 | 25.23714 | 15249 ft | 268 kts | 282° |
| 2026-04-17 20:24 | -34.02580 | 25.21457 | 15975 ft | 269 kts | 282° |
| 2026-04-17 20:25 | -34.02459 | 25.19198 | 16693 ft | 271 kts | 282° |
| 2026-04-17 20:25 | -34.02337 | 25.16957 | 17334 ft | 275 kts | 282° |
| 2026-04-17 20:25 | -34.02200 | 25.14548 | 17526 ft | 294 kts | 282° |
| 2026-04-17 20:25 | -34.02072 | 25.12074 | 18045 ft | 300 kts | 282° |
| 2026-04-17 20:26 | -34.01940 | 25.09557 | 18645 ft | 302 kts | 282° |
| 2026-04-17 20:26 | -34.01801 | 25.07021 | 19253 ft | 304 kts | 282° |
| 2026-04-17 20:26 | -34.01662 | 25.04487 | 19902 ft | 306 kts | 282° |
| 2026-04-17 20:26 | -34.01520 | 25.01907 | 20553 ft | 308 kts | 282° |
| 2026-04-17 20:27 | -34.01377 | 24.99317 | 21175 ft | 311 kts | 282° |
| 2026-04-17 20:27 | -34.01234 | 24.96738 | 21745 ft | 313 kts | 282° |
| 2026-04-17 20:27 | -34.01088 | 24.94112 | 22300 ft | 315 kts | 282° |
| 2026-04-17 20:27 | -34.00941 | 24.91468 | 22837 ft | 318 kts | 282° |
| 2026-04-17 20:28 | -34.00789 | 24.88761 | 23367 ft | 320 kts | 282° |
| 2026-04-17 20:28 | -34.00642 | 24.86133 | 23789 ft | 321 kts | 282° |
| 2026-04-17 20:28 | -34.00489 | 24.83425 | 24211 ft | 323 kts | 282° |
| 2026-04-17 20:28 | -34.00336 | 24.80733 | 24646 ft | 325 kts | 282° |
| 2026-04-17 20:29 | -34.00180 | 24.77990 | 25085 ft | 327 kts | 282° |
| 2026-04-17 20:29 | -34.00024 | 24.75254 | 25519 ft | 328 kts | 282° |
| 2026-04-17 20:29 | -33.99867 | 24.72500 | 25939 ft | 330 kts | 282° |
| 2026-04-17 20:29 | -33.99708 | 24.69752 | 26352 ft | 332 kts | 282° |
| 2026-04-17 20:30 | -33.99386 | 24.64175 | 27157 ft | 335 kts | 282° |
| 2026-04-17 20:30 | -33.99230 | 24.61410 | 27556 ft | 337 kts | 281° |
| 2026-04-17 20:30 | -33.99209 | 24.58517 | 27942 ft | 342 kts | 278° |
| 2026-04-17 20:31 | -33.99236 | 24.55672 | 28307 ft | 344 kts | 278° |
| 2026-04-17 20:31 | -33.99278 | 24.52789 | 28671 ft | 346 kts | 278° |
| 2026-04-17 20:31 | -33.99323 | 24.49894 | 29022 ft | 347 kts | 278° |
| 2026-04-17 20:31 | -33.99370 | 24.46995 | 29494 ft | 345 kts | 278° |
| 2026-04-17 20:32 | -33.99413 | 24.44100 | 29938 ft | 344 kts | 278° |
| 2026-04-17 20:32 | -33.99456 | 24.41219 | 30330 ft | 343 kts | 278° |
| 2026-04-17 20:32 | -33.99497 | 24.38347 | 30725 ft | 342 kts | 278° |
| 2026-04-17 20:32 | -33.99536 | 24.35482 | 31069 ft | 341 kts | 278° |
| 2026-04-17 20:33 | -33.99574 | 24.32624 | 31388 ft | 342 kts | 278° |
| 2026-04-17 20:33 | -33.99617 | 24.29790 | 31736 ft | 341 kts | 278° |
| 2026-04-17 20:33 | -33.99657 | 24.26931 | 32051 ft | 341 kts | 278° |
| 2026-04-17 20:33 | -33.99693 | 24.24096 | 32434 ft | 340 kts | 278° |
| 2026-04-17 20:34 | -33.99731 | 24.21240 | 32765 ft | 340 kts | 278° |
| 2026-04-17 20:34 | -33.99766 | 24.18386 | 33080 ft | 340 kts | 278° |
| 2026-04-17 20:34 | -33.99802 | 24.15549 | 33399 ft | 339 kts | 278° |
| 2026-04-17 20:34 | -33.99840 | 24.12699 | 33704 ft | 339 kts | 278° |
| 2026-04-17 20:35 | -33.99871 | 24.09868 | 33970 ft | 339 kts | 278° |
| 2026-04-17 20:35 | -33.99903 | 24.07057 | 34222 ft | 339 kts | 278° |
| 2026-04-17 20:35 | -33.99937 | 24.04210 | 34487 ft | 339 kts | 278° |
| 2026-04-17 20:35 | -33.99970 | 24.01380 | 34723 ft | 340 kts | 278° |
| 2026-04-17 20:36 | -34.00002 | 23.98531 | 34971 ft | 340 kts | 278° |
| 2026-04-17 20:36 | -34.00032 | 23.95703 | 35211 ft | 340 kts | 278° |
| 2026-04-17 20:36 | -34.00063 | 23.92838 | 35469 ft | 340 kts | 277° |
| 2026-04-17 20:36 | -34.00093 | 23.89998 | 35735 ft | 340 kts | 278° |
| 2026-04-17 20:37 | -34.00123 | 23.87146 | 35961 ft | 340 kts | 277° |
| 2026-04-17 20:37 | -34.00151 | 23.84333 | 36200 ft | 340 kts | 277° |
| 2026-04-17 20:37 | -34.00179 | 23.81438 | 36435 ft | 340 kts | 277° |
| 2026-04-17 20:37 | -34.00206 | 23.78644 | 36655 ft | 340 kts | 277° |
| 2026-04-17 20:38 | -34.00233 | 23.75789 | 36887 ft | 340 kts | 277° |
| 2026-04-17 20:38 | -34.00259 | 23.72956 | 37105 ft | 340 kts | 277° |
| 2026-04-17 20:38 | -34.00284 | 23.70092 | 37336 ft | 340 kts | 277° |
| 2026-04-17 20:38 | -34.00308 | 23.67283 | 37552 ft | 340 kts | 277° |
| 2026-04-17 20:39 | -34.00336 | 23.64429 | 37704 ft | 327 kts | 277° |
| 2026-04-17 20:39 | -34.00360 | 23.61759 | 37743 ft | 313 kts | 278° |
| 2026-04-17 20:39 | -34.00392 | 23.56487 | 37827 ft | 322 kts | 278° |
| 2026-04-17 20:40 | -34.00435 | 23.51001 | 37841 ft | 333 kts | 277° |
| 2026-04-17 20:40 | -34.00476 | 23.45348 | 37845 ft | 340 kts | 277° |
| 2026-04-17 20:41 | -34.00514 | 23.39700 | 37816 ft | 335 kts | 277° |
| 2026-04-17 20:41 | -34.00547 | 23.34082 | 37848 ft | 336 kts | 277° |
| 2026-04-17 20:42 | -34.00579 | 23.28468 | 37821 ft | 335 kts | 277° |
| 2026-04-17 20:42 | -34.00608 | 23.22897 | 37838 ft | 335 kts | 277° |
| 2026-04-17 20:43 | -34.00634 | 23.17258 | 37832 ft | 336 kts | 277° |
| 2026-04-17 20:43 | -34.00658 | 23.11626 | 37826 ft | 336 kts | 277° |
| 2026-04-17 20:44 | -34.00681 | 23.05996 | 37838 ft | 337 kts | 277° |
| 2026-04-17 20:44 | -34.00699 | 23.00374 | 37827 ft | 337 kts | 277° |
| 2026-04-17 20:45 | -34.00714 | 22.94710 | 37837 ft | 338 kts | 277° |
| 2026-04-17 20:45 | -34.00728 | 22.89025 | 37827 ft | 339 kts | 277° |
| 2026-04-17 20:46 | -34.00740 | 22.83381 | 37839 ft | 339 kts | 277° |
| 2026-04-17 20:46 | -34.00749 | 22.77689 | 37831 ft | 340 kts | 277° |
| 2026-04-17 20:47 | -34.00754 | 22.71995 | 37851 ft | 340 kts | 277° |
| 2026-04-17 20:47 | -34.00758 | 22.66298 | 37839 ft | 340 kts | 277° |
| 2026-04-17 20:48 | -34.00759 | 22.60603 | 37839 ft | 341 kts | 277° |
| 2026-04-17 20:48 | -34.00757 | 22.54880 | 37838 ft | 341 kts | 277° |
| 2026-04-17 20:49 | -34.00752 | 22.49198 | 37851 ft | 341 kts | 277° |
| 2026-04-17 20:49 | -34.00745 | 22.43469 | 37838 ft | 341 kts | 277° |
| 2026-04-17 20:50 | -34.00737 | 22.37756 | 37846 ft | 341 kts | 277° |
| 2026-04-17 20:50 | -34.00711 | 22.32031 | 37835 ft | 341 kts | 276° |
| 2026-04-17 20:51 | -34.00682 | 22.26346 | 37850 ft | 341 kts | 276° |
| 2026-04-17 20:51 | -34.00652 | 22.20634 | 37833 ft | 341 kts | 276° |
| 2026-04-17 20:52 | -34.00618 | 22.14923 | 37856 ft | 341 kts | 276° |
| 2026-04-17 20:52 | -34.00582 | 22.09192 | 37842 ft | 342 kts | 276° |
| 2026-04-17 20:53 | -34.00543 | 22.03463 | 37847 ft | 343 kts | 276° |
| 2026-04-17 20:53 | -34.00502 | 21.97751 | 37853 ft | 343 kts | 276° |
| 2026-04-17 20:54 | -34.00457 | 21.91990 | 37847 ft | 344 kts | 276° |
| 2026-04-17 20:54 | -34.00410 | 21.86234 | 37854 ft | 344 kts | 276° |
| 2026-04-17 20:55 | -34.00360 | 21.80473 | 37853 ft | 344 kts | 276° |
| 2026-04-17 20:55 | -34.00308 | 21.74692 | 37849 ft | 345 kts | 276° |
| 2026-04-17 20:56 | -34.00253 | 21.68936 | 37865 ft | 346 kts | 276° |
| 2026-04-17 20:56 | -34.00195 | 21.63124 | 37849 ft | 347 kts | 276° |
| 2026-04-17 20:57 | -34.00134 | 21.57296 | 37859 ft | 348 kts | 276° |
| 2026-04-17 20:57 | -34.00069 | 21.51475 | 37851 ft | 349 kts | 276° |
| 2026-04-17 20:58 | -34.00003 | 21.45657 | 37853 ft | 349 kts | 276° |
| 2026-04-17 20:58 | -33.99934 | 21.39793 | 37844 ft | 349 kts | 275° |
| 2026-04-17 20:59 | -33.99860 | 21.33951 | 37863 ft | 350 kts | 275° |
| 2026-04-17 20:59 | -33.99783 | 21.28084 | 37859 ft | 349 kts | 275° |
| 2026-04-17 21:00 | -33.99704 | 21.22239 | 37870 ft | 350 kts | 275° |
| 2026-04-17 21:00 | -33.99623 | 21.16436 | 37860 ft | 348 kts | 275° |
| 2026-04-17 21:01 | -33.99538 | 21.10598 | 37881 ft | 348 kts | 275° |
| 2026-04-17 21:01 | -33.99451 | 21.04771 | 37861 ft | 348 kts | 275° |
| 2026-04-17 21:02 | -33.99361 | 20.98941 | 37871 ft | 348 kts | 275° |
| 2026-04-17 21:02 | -33.99268 | 20.93105 | 37862 ft | 348 kts | 275° |
| 2026-04-17 21:03 | -33.99173 | 20.87309 | 37869 ft | 348 kts | 275° |
| 2026-04-17 21:03 | -33.99074 | 20.81488 | 37862 ft | 348 kts | 274° |
| 2026-04-17 21:04 | -33.98975 | 20.75675 | 37876 ft | 347 kts | 274° |
| 2026-04-17 21:04 | -33.98871 | 20.69859 | 37853 ft | 346 kts | 274° |
| 2026-04-17 21:05 | -33.98767 | 20.64071 | 37866 ft | 346 kts | 274° |
| 2026-04-17 21:05 | -33.98658 | 20.58285 | 37852 ft | 347 kts | 274° |
| 2026-04-17 21:06 | -33.98548 | 20.52478 | 37874 ft | 348 kts | 274° |
| 2026-04-17 21:06 | -33.98435 | 20.46656 | 37856 ft | 346 kts | 274° |
| 2026-04-17 21:07 | -33.98319 | 20.40833 | 37846 ft | 347 kts | 274° |
| 2026-04-17 21:07 | -33.98200 | 20.35033 | 37856 ft | 347 kts | 274° |
| 2026-04-17 21:08 | -33.98080 | 20.29249 | 37875 ft | 347 kts | 274° |
| 2026-04-17 21:08 | -33.97953 | 20.23422 | 37854 ft | 348 kts | 274° |
| 2026-04-17 21:09 | -33.97848 | 20.18554 | 37865 ft | 348 kts | 274° |
| 2026-04-17 21:09 | -33.97719 | 20.12786 | 37870 ft | 348 kts | 274° |
| 2026-04-17 21:10 | -33.97587 | 20.06933 | 37857 ft | 348 kts | 274° |
| 2026-04-17 21:10 | -33.97452 | 20.01107 | 37865 ft | 348 kts | 274° |
| 2026-04-17 21:11 | -33.97290 | 19.94295 | 37861 ft | 348 kts | 274° |
| 2026-04-17 21:11 | -33.97173 | 19.89442 | 37877 ft | 348 kts | 274° |
| 2026-04-17 21:12 | -33.97206 | 19.83639 | 37877 ft | 351 kts | 263° |
| 2026-04-17 21:12 | -33.98565 | 19.77951 | 37881 ft | 356 kts | 255° |
| 2026-04-17 21:13 | -34.00556 | 19.72444 | 37857 ft | 359 kts | 248° |
| 2026-04-17 21:13 | -34.02829 | 19.67086 | 37883 ft | 360 kts | 248° |
| 2026-04-17 21:14 | -34.04761 | 19.61569 | 37881 ft | 353 kts | 262° |
| 2026-04-17 21:14 | -34.04980 | 19.55744 | 37865 ft | 350 kts | 275° |
| 2026-04-17 21:15 | -34.04309 | 19.49925 | 37865 ft | 351 kts | 279° |
| 2026-04-17 21:15 | -34.03516 | 19.44132 | 37871 ft | 351 kts | 279° |
| 2026-04-17 21:16 | -34.02713 | 19.38316 | 37874 ft | 352 kts | 279° |
| 2026-04-17 21:16 | -34.01881 | 19.32540 | 37897 ft | 352 kts | 281° |
| 2026-04-17 21:17 | -34.01172 | 19.26659 | 37869 ft | 352 kts | 278° |
| 2026-04-17 21:17 | -34.00541 | 19.20846 | 37896 ft | 352 kts | 277° |
| 2026-04-17 21:18 | -33.99903 | 19.14978 | 37878 ft | 353 kts | 277° |
| 2026-04-17 21:18 | -33.99260 | 19.09099 | 37878 ft | 353 kts | 277° |
| 2026-04-17 21:19 | -33.98616 | 19.03252 | 37913 ft | 353 kts | 277° |
| 2026-04-17 21:19 | -33.97975 | 18.97434 | 37923 ft | 352 kts | 277° |
| 2026-04-17 21:20 | -33.97348 | 18.91575 | 37891 ft | 352 kts | 274° |
| 2026-04-17 21:20 | -33.97541 | 18.85699 | 37932 ft | 355 kts | 265° |
| 2026-04-17 21:21 | -33.98557 | 18.79905 | 37900 ft | 356 kts | 259° |
| 2026-04-17 21:21 | -33.98895 | 18.76980 | 37909 ft | 353 kts | 270° |
| 2026-04-17 21:21 | -33.98689 | 18.74034 | 37932 ft | 352 kts | 280° |
| 2026-04-17 21:22 | -33.97541 | 18.68304 | 37906 ft | 352 kts | 284° |
| 2026-04-17 21:22 | -33.95737 | 18.62829 | 37919 ft | 357 kts | 301° |
| 2026-04-17 21:23 | -33.94139 | 18.60526 | 37919 ft | 363 kts | 312° |
| 2026-04-17 21:23 | -33.92103 | 18.58646 | 37918 ft | 371 kts | 323° |
| 2026-04-17 21:23 | -33.89756 | 18.57318 | 37914 ft | 380 kts | 335° |
| 2026-04-17 21:23 | -33.87200 | 18.56513 | 37917 ft | 386 kts | 341° |
| 2026-04-17 21:24 | -33.81897 | 18.55336 | 37906 ft | 388 kts | 343° |
| 2026-04-17 21:24 | -33.76678 | 18.53908 | 37894 ft | 384 kts | 338° |
| 2026-04-17 21:25 | -33.71542 | 18.52299 | 37916 ft | 383 kts | 338° |
| 2026-04-17 21:25 | -33.66363 | 18.50665 | 37907 ft | 383 kts | 338° |
| 2026-04-17 21:26 | -33.61230 | 18.49050 | 37920 ft | 383 kts | 338° |
| 2026-04-17 21:26 | -33.56088 | 18.47435 | 37919 ft | 383 kts | 338° |
| 2026-04-17 21:27 | -33.50939 | 18.45821 | 37929 ft | 382 kts | 338° |
| 2026-04-17 21:27 | -33.45818 | 18.44218 | 37917 ft | 382 kts | 338° |
| 2026-04-17 21:28 | -33.40680 | 18.42612 | 37939 ft | 381 kts | 338° |
| 2026-04-17 21:28 | -33.35551 | 18.41011 | 37930 ft | 381 kts | 338° |
| 2026-04-17 21:29 | -33.30439 | 18.39416 | 37940 ft | 381 kts | 338° |
| 2026-04-17 21:29 | -33.25314 | 18.37819 | 37938 ft | 380 kts | 338° |
| 2026-04-17 21:30 | -33.20188 | 18.36225 | 37939 ft | 380 kts | 338° |
| 2026-04-17 21:30 | -33.15104 | 18.34645 | 37939 ft | 379 kts | 338° |
| 2026-04-17 21:31 | -33.09996 | 18.33059 | 37934 ft | 379 kts | 338° |
| 2026-04-17 21:31 | -33.04899 | 18.31480 | 37943 ft | 379 kts | 338° |
| 2026-04-17 21:32 | -32.99791 | 18.29898 | 37939 ft | 379 kts | 338° |
| 2026-04-17 21:32 | -32.94741 | 18.28337 | 37940 ft | 378 kts | 338° |
| 2026-04-17 21:33 | -32.89633 | 18.26759 | 37934 ft | 378 kts | 338° |
| 2026-04-17 21:33 | -32.84560 | 18.25193 | 37950 ft | 377 kts | 338° |
| 2026-04-17 21:34 | -32.79467 | 18.23624 | 37942 ft | 377 kts | 338° |
| 2026-04-17 21:35 | -32.71897 | 18.21295 | 37959 ft | 377 kts | 338° |
| 2026-04-17 21:35 | -32.66835 | 18.19740 | 37948 ft | 376 kts | 338° |
| 2026-04-17 21:36 | -32.61751 | 18.18179 | 37963 ft | 376 kts | 338° |
| 2026-04-17 21:36 | -32.56710 | 18.16635 | 37962 ft | 376 kts | 338° |
| 2026-04-17 21:37 | -32.51622 | 18.15076 | 37948 ft | 376 kts | 338° |
| 2026-04-17 21:37 | -32.46598 | 18.13539 | 37967 ft | 376 kts | 338° |
| 2026-04-17 21:38 | -32.41550 | 18.11998 | 37971 ft | 375 kts | 338° |
| 2026-04-17 21:38 | -32.36482 | 18.10452 | 37965 ft | 375 kts | 338° |
| 2026-04-17 21:39 | -32.31425 | 18.08910 | 37976 ft | 375 kts | 338° |
| 2026-04-17 21:39 | -32.26380 | 18.07375 | 37971 ft | 374 kts | 339° |
| 2026-04-17 21:40 | -32.21370 | 18.05851 | 37981 ft | 374 kts | 339° |
| 2026-04-17 21:40 | -32.16331 | 18.04321 | 37982 ft | 374 kts | 338° |
| 2026-04-17 21:41 | -32.11287 | 18.02791 | 37982 ft | 374 kts | 338° |
| 2026-04-17 21:41 | -32.06267 | 18.01270 | 37985 ft | 373 kts | 338° |
| 2026-04-17 21:42 | -32.01258 | 17.99754 | 37979 ft | 373 kts | 338° |
| 2026-04-17 21:42 | -31.96245 | 17.98238 | 37993 ft | 373 kts | 338° |
| 2026-04-17 21:43 | -31.91225 | 17.96722 | 37977 ft | 372 kts | 338° |
| 2026-04-17 21:43 | -31.86239 | 17.95217 | 37993 ft | 372 kts | 338° |
| 2026-04-17 21:44 | -31.81198 | 17.93699 | 37983 ft | 371 kts | 338° |
| 2026-04-17 21:44 | -31.76239 | 17.92206 | 37992 ft | 371 kts | 338° |
| 2026-04-17 21:45 | -31.71253 | 17.90707 | 37987 ft | 370 kts | 338° |
| 2026-04-17 21:45 | -31.66260 | 17.89208 | 37988 ft | 370 kts | 338° |
| 2026-04-17 21:46 | -31.61299 | 17.87719 | 38005 ft | 370 kts | 338° |
| 2026-04-17 21:46 | -31.56315 | 17.86226 | 37987 ft | 369 kts | 338° |
| 2026-04-17 21:47 | -31.51347 | 17.84739 | 37981 ft | 369 kts | 338° |
| 2026-04-17 21:47 | -31.46358 | 17.83247 | 37999 ft | 369 kts | 338° |
| 2026-04-17 21:48 | -31.41387 | 17.81763 | 37984 ft | 369 kts | 338° |
| 2026-04-17 21:48 | -31.36413 | 17.80278 | 37999 ft | 369 kts | 338° |
| 2026-04-17 21:49 | -31.31468 | 17.78805 | 37992 ft | 369 kts | 338° |
| 2026-04-17 21:49 | -31.26491 | 17.77323 | 38011 ft | 369 kts | 338° |
| 2026-04-17 21:50 | -31.21530 | 17.75848 | 37996 ft | 368 kts | 338° |
| 2026-04-17 21:50 | -31.16562 | 17.74372 | 38007 ft | 369 kts | 338° |
| 2026-04-17 21:51 | -31.11630 | 17.72909 | 38002 ft | 368 kts | 338° |
| 2026-04-17 21:51 | -31.06654 | 17.71433 | 38016 ft | 368 kts | 338° |
| 2026-04-17 21:52 | -31.01701 | 17.69968 | 38004 ft | 367 kts | 338° |
| 2026-04-17 21:52 | -30.96751 | 17.68503 | 38011 ft | 368 kts | 337° |
| 2026-04-17 21:53 | -30.91822 | 17.67047 | 38012 ft | 367 kts | 337° |
| 2026-04-17 21:53 | -30.86871 | 17.65586 | 38005 ft | 367 kts | 337° |
| 2026-04-17 21:54 | -30.81910 | 17.64123 | 38023 ft | 368 kts | 337° |
| 2026-04-17 21:54 | -30.76957 | 17.62665 | 38011 ft | 368 kts | 337° |
| 2026-04-17 21:55 | -30.72029 | 17.61214 | 38021 ft | 368 kts | 337° |
| 2026-04-17 21:55 | -30.67070 | 17.59758 | 38017 ft | 367 kts | 337° |
| 2026-04-17 21:56 | -30.62110 | 17.58301 | 38027 ft | 368 kts | 337° |
| 2026-04-17 21:56 | -30.57142 | 17.56845 | 38018 ft | 368 kts | 337° |
| 2026-04-17 21:57 | -30.52189 | 17.55394 | 38029 ft | 368 kts | 337° |
| 2026-04-17 21:57 | -30.47255 | 17.53949 | 38024 ft | 368 kts | 337° |
| 2026-04-17 21:58 | -30.42284 | 17.52497 | 38013 ft | 367 kts | 337° |
| 2026-04-17 21:58 | -30.37348 | 17.51054 | 38033 ft | 367 kts | 337° |
| 2026-04-17 21:59 | -30.32412 | 17.49615 | 38019 ft | 367 kts | 337° |
| 2026-04-17 21:59 | -30.27467 | 17.48174 | 38028 ft | 367 kts | 337° |
| 2026-04-17 22:00 | -30.22519 | 17.46733 | 38036 ft | 367 kts | 337° |
| 2026-04-17 22:00 | -30.17565 | 17.45292 | 38019 ft | 366 kts | 337° |
| 2026-04-17 22:01 | -30.12616 | 17.43855 | 38041 ft | 367 kts | 337° |
| 2026-04-17 22:01 | -30.07696 | 17.42428 | 38028 ft | 367 kts | 337° |
| 2026-04-17 22:02 | -30.02708 | 17.40980 | 38040 ft | 367 kts | 337° |
| 2026-04-17 22:02 | -29.97789 | 17.39556 | 38024 ft | 366 kts | 337° |
| 2026-04-17 22:03 | -29.92851 | 17.38127 | 38035 ft | 367 kts | 337° |
| 2026-04-17 22:03 | -29.87902 | 17.36698 | 38022 ft | 366 kts | 337° |
| 2026-04-17 22:04 | -29.82963 | 17.35271 | 38054 ft | 366 kts | 337° |
| 2026-04-17 22:04 | -29.78039 | 17.33851 | 38020 ft | 366 kts | 337° |
| 2026-04-17 22:05 | -29.73102 | 17.32428 | 38042 ft | 366 kts | 337° |
| 2026-04-17 22:05 | -29.68200 | 17.31017 | 38021 ft | 365 kts | 337° |
| 2026-04-17 22:06 | -29.63285 | 17.29603 | 38043 ft | 365 kts | 337° |
| 2026-04-17 22:06 | -29.58359 | 17.28189 | 38031 ft | 364 kts | 337° |
| 2026-04-17 22:07 | -29.53459 | 17.26782 | 38037 ft | 364 kts | 337° |
| 2026-04-17 22:07 | -29.48577 | 17.25383 | 38034 ft | 363 kts | 337° |
| 2026-04-17 22:08 | -29.43674 | 17.23978 | 38038 ft | 364 kts | 337° |
| 2026-04-17 22:08 | -29.38771 | 17.22576 | 38037 ft | 363 kts | 337° |
| 2026-04-17 22:09 | -29.33851 | 17.21170 | 38033 ft | 363 kts | 337° |
| 2026-04-17 22:09 | -29.28952 | 17.19770 | 38037 ft | 363 kts | 337° |
| 2026-04-17 22:10 | -29.24086 | 17.18382 | 38034 ft | 363 kts | 337° |
| 2026-04-17 22:10 | -29.19187 | 17.16986 | 38050 ft | 363 kts | 337° |
| 2026-04-17 22:11 | -29.14296 | 17.15593 | 38035 ft | 362 kts | 337° |
| 2026-04-17 22:11 | -29.09409 | 17.14203 | 38039 ft | 362 kts | 337° |
| 2026-04-17 22:12 | -29.04511 | 17.12812 | 38035 ft | 361 kts | 337° |
| 2026-04-17 22:12 | -28.99670 | 17.11432 | 38034 ft | 362 kts | 337° |
| 2026-04-17 22:13 | -28.94792 | 17.10053 | 38039 ft | 361 kts | 337° |
| 2026-04-17 22:13 | -28.89904 | 17.08669 | 38028 ft | 361 kts | 337° |
| 2026-04-17 22:14 | -28.85013 | 17.07284 | 38044 ft | 361 kts | 337° |
| 2026-04-17 22:14 | -28.80134 | 17.05904 | 38036 ft | 361 kts | 337° |
| 2026-04-17 22:15 | -28.75305 | 17.04540 | 38041 ft | 361 kts | 337° |
| 2026-04-17 22:15 | -28.70414 | 17.03159 | 38033 ft | 361 kts | 336° |
| 2026-04-17 22:16 | -28.65544 | 17.01786 | 38040 ft | 361 kts | 336° |
| 2026-04-17 22:16 | -28.60677 | 17.00414 | 38033 ft | 361 kts | 336° |
| 2026-04-17 22:17 | -28.55827 | 16.99052 | 38041 ft | 361 kts | 336° |
| 2026-04-17 22:17 | -28.50956 | 16.97680 | 38030 ft | 361 kts | 336° |
| 2026-04-17 22:18 | -28.46084 | 16.96312 | 38042 ft | 361 kts | 336° |
| 2026-04-17 22:18 | -28.41203 | 16.94943 | 38031 ft | 361 kts | 336° |
| 2026-04-17 22:19 | -28.36354 | 16.93583 | 38029 ft | 362 kts | 336° |
| 2026-04-17 22:19 | -28.31527 | 16.92231 | 38042 ft | 361 kts | 336° |
| 2026-04-17 22:20 | -28.26589 | 16.90849 | 38035 ft | 361 kts | 336° |
| 2026-04-17 22:20 | -28.21716 | 16.89486 | 38051 ft | 361 kts | 336° |
| 2026-04-17 22:21 | -28.16827 | 16.88121 | 38035 ft | 362 kts | 336° |
| 2026-04-17 22:21 | -28.11942 | 16.86758 | 38028 ft | 362 kts | 336° |
| 2026-04-17 22:22 | -28.07076 | 16.85400 | 37999 ft | 364 kts | 336° |
| 2026-04-17 22:22 | -28.02172 | 16.84035 | 38027 ft | 362 kts | 336° |
| 2026-04-17 22:23 | -27.97281 | 16.82674 | 38040 ft | 363 kts | 336° |
| 2026-04-17 22:23 | -27.92407 | 16.81319 | 38027 ft | 362 kts | 336° |
| 2026-04-17 22:24 | -27.87522 | 16.79960 | 38029 ft | 363 kts | 336° |
| 2026-04-17 22:24 | -27.82625 | 16.78606 | 38013 ft | 362 kts | 336° |
| 2026-04-17 22:25 | -27.77737 | 16.77248 | 38045 ft | 362 kts | 336° |
| 2026-04-17 22:25 | -27.72872 | 16.75901 | 38044 ft | 362 kts | 336° |
| 2026-04-17 22:26 | -27.67984 | 16.74548 | 38022 ft | 361 kts | 336° |
| 2026-04-17 22:26 | -27.63099 | 16.73198 | 38043 ft | 362 kts | 336° |
| 2026-04-17 22:27 | -27.58216 | 16.71849 | 38028 ft | 362 kts | 336° |
| 2026-04-17 22:27 | -27.53352 | 16.70506 | 38032 ft | 362 kts | 336° |
| 2026-04-17 22:28 | -27.48471 | 16.69160 | 38028 ft | 361 kts | 336° |
| 2026-04-17 22:28 | -27.43576 | 16.67813 | 38032 ft | 362 kts | 336° |
| 2026-04-17 22:29 | -27.38691 | 16.66469 | 38037 ft | 361 kts | 336° |
| 2026-04-17 22:29 | -27.33827 | 16.65131 | 38027 ft | 362 kts | 336° |
| 2026-04-17 22:30 | -27.28948 | 16.63791 | 38038 ft | 362 kts | 336° |
| 2026-04-17 22:30 | -27.24050 | 16.62446 | 38024 ft | 362 kts | 336° |
| 2026-04-17 22:31 | -27.19160 | 16.61105 | 38050 ft | 362 kts | 336° |
| 2026-04-17 22:31 | -27.14287 | 16.59772 | 38014 ft | 362 kts | 337° |
| 2026-04-17 22:32 | -27.09402 | 16.58434 | 38029 ft | 363 kts | 337° |
| 2026-04-17 22:32 | -27.04473 | 16.57088 | 38058 ft | 368 kts | 335° |
| 2026-04-17 22:33 | -26.99466 | 16.55717 | 38031 ft | 370 kts | 336° |
| 2026-04-17 22:33 | -26.94475 | 16.54356 | 38030 ft | 368 kts | 336° |
| 2026-04-17 22:34 | -26.89494 | 16.52995 | 38037 ft | 370 kts | 336° |
| 2026-04-17 22:34 | -26.84544 | 16.51647 | 38026 ft | 370 kts | 336° |
| 2026-04-17 22:35 | -26.79528 | 16.50283 | 38038 ft | 370 kts | 336° |
| 2026-04-17 22:35 | -26.74519 | 16.48920 | 38034 ft | 370 kts | 336° |
| 2026-04-17 22:36 | -26.69515 | 16.47560 | 38041 ft | 371 kts | 336° |
| 2026-04-17 22:36 | -26.64533 | 16.46208 | 38031 ft | 371 kts | 336° |
| 2026-04-17 22:37 | -26.59500 | 16.44842 | 38033 ft | 372 kts | 336° |
| 2026-04-17 22:37 | -26.54461 | 16.43477 | 38035 ft | 372 kts | 336° |
| 2026-04-17 22:38 | -26.49434 | 16.42116 | 38030 ft | 373 kts | 336° |
| 2026-04-17 22:38 | -26.44422 | 16.40760 | 38039 ft | 372 kts | 336° |
| 2026-04-17 22:39 | -26.39378 | 16.39397 | 38025 ft | 373 kts | 336° |
| 2026-04-17 22:39 | -26.31827 | 16.37358 | 38029 ft | 373 kts | 336° |
| 2026-04-17 22:40 | -26.26791 | 16.36001 | 38028 ft | 373 kts | 336° |
| 2026-04-17 22:40 | -26.21742 | 16.34640 | 38033 ft | 374 kts | 336° |
| 2026-04-17 22:41 | -26.16700 | 16.33283 | 38028 ft | 373 kts | 336° |
| 2026-04-17 22:41 | -26.11640 | 16.31922 | 38031 ft | 374 kts | 336° |
| 2026-04-17 22:42 | -26.06615 | 16.30572 | 38024 ft | 374 kts | 336° |
| 2026-04-17 22:42 | -26.01577 | 16.29218 | 37992 ft | 373 kts | 336° |
| 2026-04-17 22:43 | -25.96496 | 16.27857 | 38044 ft | 374 kts | 336° |
| 2026-04-17 22:43 | -25.91434 | 16.26499 | 38034 ft | 375 kts | 336° |
| 2026-04-17 22:44 | -25.86359 | 16.25141 | 38030 ft | 375 kts | 336° |
| 2026-04-17 22:44 | -25.81325 | 16.23795 | 38037 ft | 375 kts | 336° |
| 2026-04-17 22:45 | -25.76268 | 16.22443 | 38033 ft | 375 kts | 337° |
| 2026-04-17 22:45 | -25.71182 | 16.21084 | 38037 ft | 375 kts | 337° |
| 2026-04-17 22:46 | -25.66145 | 16.19741 | 38037 ft | 375 kts | 337° |
| 2026-04-17 22:46 | -25.61074 | 16.18390 | 38026 ft | 375 kts | 337° |
| 2026-04-17 22:47 | -25.55992 | 16.17035 | 38036 ft | 375 kts | 337° |
| 2026-04-17 22:47 | -25.50912 | 16.15682 | 38025 ft | 375 kts | 337° |
| 2026-04-17 22:48 | -25.45868 | 16.14344 | 38026 ft | 374 kts | 336° |
| 2026-04-17 22:48 | -25.40775 | 16.12987 | 38031 ft | 376 kts | 337° |
| 2026-04-17 22:49 | -25.35714 | 16.11647 | 38023 ft | 376 kts | 337° |
| 2026-04-17 22:49 | -25.30628 | 16.10297 | 38023 ft | 376 kts | 337° |
| 2026-04-17 22:50 | -25.25551 | 16.08953 | 38021 ft | 376 kts | 337° |
| 2026-04-17 22:50 | -25.20488 | 16.07612 | 38013 ft | 376 kts | 337° |
| 2026-04-17 22:51 | -25.15365 | 16.06257 | 38003 ft | 376 kts | 337° |
| 2026-04-17 22:51 | -25.10292 | 16.04916 | 38004 ft | 377 kts | 337° |
| 2026-04-17 22:52 | -25.05175 | 16.03567 | 37965 ft | 378 kts | 337° |
| 2026-04-17 22:52 | -25.00072 | 16.02217 | 37995 ft | 378 kts | 336° |
| 2026-04-17 22:53 | -24.94963 | 16.00870 | 37993 ft | 378 kts | 336° |
| 2026-04-17 22:53 | -24.89878 | 15.99532 | 37999 ft | 378 kts | 336° |
| 2026-04-17 22:54 | -24.84747 | 15.98183 | 37980 ft | 379 kts | 336° |
| 2026-04-17 22:54 | -24.79628 | 15.96835 | 38000 ft | 379 kts | 336° |
| 2026-04-17 22:55 | -24.74490 | 15.95487 | 37985 ft | 379 kts | 336° |
| 2026-04-17 22:55 | -24.69396 | 15.94149 | 37986 ft | 379 kts | 336° |
| 2026-04-17 22:56 | -24.64261 | 15.92803 | 37985 ft | 380 kts | 336° |
| 2026-04-17 22:56 | -24.59125 | 15.91456 | 37974 ft | 379 kts | 336° |
| 2026-04-17 22:57 | -24.53986 | 15.90111 | 37978 ft | 380 kts | 336° |
| 2026-04-17 22:57 | -24.48879 | 15.88775 | 37977 ft | 380 kts | 336° |
| 2026-04-17 22:58 | -24.43729 | 15.87428 | 37966 ft | 380 kts | 336° |
| 2026-04-17 22:58 | -24.38595 | 15.86088 | 37971 ft | 380 kts | 336° |
| 2026-04-17 22:59 | -24.33445 | 15.84745 | 37970 ft | 381 kts | 336° |
| 2026-04-17 22:59 | -24.28330 | 15.83411 | 37975 ft | 381 kts | 336° |
| 2026-04-17 23:00 | -24.23173 | 15.82073 | 37954 ft | 378 kts | 337° |
| 2026-04-17 23:00 | -24.18140 | 15.80772 | 37951 ft | 367 kts | 336° |
| 2026-04-17 23:01 | -24.13248 | 15.79486 | 37953 ft | 357 kts | 335° |
| 2026-04-17 23:01 | -24.08520 | 15.78243 | 37939 ft | 338 kts | 334° |
| 2026-04-17 23:02 | -24.06275 | 15.77651 | 37904 ft | 322 kts | 335° |
| 2026-04-17 23:02 | -24.04174 | 15.77125 | 37872 ft | 305 kts | 334° |
| 2026-04-17 23:02 | -24.02823 | 15.76785 | 37852 ft | 293 kts | 333° |
| 2026-04-17 23:02 | -24.02717 | 15.76758 | 37847 ft | 292 kts | 333° |
| 2026-04-17 23:03 | -24.01628 | 15.76476 | 37830 ft | 282 kts | 333° |